Time,TemperatureF,DewpointF,PressureIn,WindDirection,WindDirectionDegrees,WindSpeedMPH,WindSpeedGustMPH,Humidity,HourlyPrecipIn,Conditions,Clouds,dailyrainin,SoftwareType,DateUTC
2013-04-28 00:04:00,54.8,51.0,29.99,East,96,0.0,0.0,88,0.00,,,0.00,weatherlink.com 1.10,2013-04-28 05:04:00,
2013-04-28 00:19:00,54.1,51.0,29.99,East,96,0.0,0.0,88,0.00,,,0.00,weatherlink.com 1.10,2013-04-28 05:19:00,
2013-04-28 00:34:00,53.0,50.0,29.98,East,96,0.0,0.0,89,0.00,,,0.00,weatherlink.com 1.10,2013-04-28 05:34:00,
2013-04-28 00:49:00,52.7,50.0,29.99,East,96,0.0,0.0,91,0.00,,,0.00,weatherlink.com 1.10,2013-04-28 05:49:00,
2013-04-28 01:04:00,52.7,50.0,29.99,East,96,0.0,0.0,91,0.00,,,0.00,weatherlink.com 1.10,2013-04-28 06:04:00,
2013-04-28 01:19:00,52.4,50.0,29.99,East,96,0.0,0.0,91,0.00,,,0.00,weatherlink.com 1.10,2013-04-28 06:19:00,
2013-04-28 01:34:00,51.9,50.0,29.99,East,96,0.0,0.0,92,0.00,,,0.00,weatherlink.com 1.10,2013-04-28 06:34:00,
2013-04-28 01:49:00,51.5,49.0,29.98,East,96,0.0,0.0,92,0.00,,,0.00,weatherlink.com 1.10,2013-04-28 06:49:00,
2013-04-28 02:05:00,51.2,49.0,29.98,East,96,0.0,0.0,93,0.00,,,0.00,weatherlink.com 1.10,2013-04-28 07:05:00,
2013-04-28 02:20:00,50.9,49.0,29.98,ESE,102,0.0,0.0,93,0.00,,,0.00,weatherlink.com 1.10,2013-04-28 07:20:00,
2013-04-28 02:35:00,50.6,49.0,29.98,ESE,105,0.0,0.0,94,0.00,,,0.00,weatherlink.com 1.10,2013-04-28 07:35:00,
2013-04-28 02:50:00,50.6,49.0,29.98,ESE,105,0.0,0.0,94,0.00,,,0.00,weatherlink.com 1.10,2013-04-28 07:50:00,
2013-04-28 03:05:00,50.4,49.0,29.98,ESE,105,0.0,0.0,94,0.00,,,0.00,weatherlink.com 1.10,2013-04-28 08:05:00,
2013-04-28 03:20:00,50.1,49.0,29.98,ESE,105,0.0,0.0,94,0.00,,,0.00,weatherlink.com 1.10,2013-04-28 08:20:00,
2013-04-28 03:35:00,49.9,49.0,29.98,ESE,106,0.0,0.0,95,0.00,,,0.00,weatherlink.com 1.10,2013-04-28 08:35:00,
2013-04-28 03:50:00,50.4,49.0,29.99,SE,146,0.0,0.0,95,0.00,,,0.00,weatherlink.com 1.10,2013-04-28 08:50:00,
2013-04-28 04:05:00,50.5,49.0,29.99,SE,127,0.0,0.0,95,0.00,,,0.00,weatherlink.com 1.10,2013-04-28 09:05:00,
2013-04-28 04:20:00,50.4,49.0,29.99,SE,127,0.0,0.0,95,0.00,,,0.00,weatherlink.com 1.10,2013-04-28 09:20:00,
2013-04-28 04:35:00,49.8,49.0,29.99,SE,127,0.0,0.0,95,0.00,,,0.00,weatherlink.com 1.10,2013-04-28 09:35:00,
2013-04-28 04:50:00,49.5,48.0,29.99,SE,127,0.0,0.0,95,0.00,,,0.00,weatherlink.com 1.10,2013-04-28 09:50:00,
2013-04-28 05:05:00,49.1,48.0,29.99,SE,127,0.0,0.0,95,0.00,,,0.00,weatherlink.com 1.10,2013-04-28 10:05:00,
2013-04-28 05:20:00,49.1,48.0,29.99,SE,127,0.0,0.0,96,0.00,,,0.00,weatherlink.com 1.10,2013-04-28 10:20:00,
2013-04-28 05:35:00,49.1,48.0,29.99,SE,127,0.0,0.0,96,0.00,,,0.00,weatherlink.com 1.10,2013-04-28 10:35:00,
2013-04-28 05:50:00,48.5,48.0,29.99,SE,127,0.0,0.0,96,0.00,,,0.00,weatherlink.com 1.10,2013-04-28 10:50:00,
2013-04-28 06:05:00,48.7,48.0,29.99,SE,127,0.0,0.0,96,0.00,,,0.00,weatherlink.com 1.10,2013-04-28 11:05:00,
2013-04-28 06:20:00,48.3,47.0,29.99,SE,127,0.0,0.0,95,0.00,,,0.00,weatherlink.com 1.10,2013-04-28 11:20:00,
2013-04-28 06:35:00,48.1,47.0,30.00,SE,127,0.0,0.0,96,0.00,,,0.00,weatherlink.com 1.10,2013-04-28 11:35:00,
2013-04-28 06:50:00,47.9,47.0,30.00,ENE,58,0.0,1.0,96,0.00,,,0.00,weatherlink.com 1.10,2013-04-28 11:50:00,
2013-04-28 07:05:00,47.8,47.0,30.01,ENE,58,0.0,0.0,96,0.00,,,0.00,weatherlink.com 1.10,2013-04-28 12:05:00,
2013-04-28 07:20:00,47.8,47.0,30.01,ENE,58,0.0,0.0,96,0.00,,,0.00,weatherlink.com 1.10,2013-04-28 12:20:00,
2013-04-28 07:35:00,48.1,47.0,30.01,ENE,58,0.0,0.0,96,0.00,,,0.00,weatherlink.com 1.10,2013-04-28 12:35:00,
2013-04-28 07:50:00,48.6,48.0,30.01,ENE,58,0.0,0.0,96,0.00,,,0.00,weatherlink.com 1.10,2013-04-28 12:50:00,
2013-04-28 08:05:00,50.1,49.0,30.01,ENE,59,0.0,0.0,97,0.00,,,0.00,weatherlink.com 1.10,2013-04-28 13:05:00,
2013-04-28 08:20:00,51.1,50.0,30.01,ENE,73,0.0,3.0,96,0.00,,,0.00,weatherlink.com 1.10,2013-04-28 13:20:00,
2013-04-28 08:35:00,52.8,52.0,30.00,ESE,103,1.0,3.0,96,0.00,,,0.00,weatherlink.com 1.10,2013-04-28 13:35:00,
2013-04-28 08:50:00,54.2,53.0,30.00,ESE,109,1.0,3.0,95,0.00,,,0.00,weatherlink.com 1.10,2013-04-28 13:50:00,
2013-04-28 09:05:00,56.3,54.0,30.00,SE,130,0.0,4.0,93,0.00,,,0.00,weatherlink.com 1.10,2013-04-28 14:05:00,
2013-04-28 09:20:00,58.2,55.0,30.00,SE,128,4.0,5.0,89,0.00,,,0.00,weatherlink.com 1.10,2013-04-28 14:20:00,
2013-04-28 09:35:00,59.8,56.0,30.00,SE,132,3.0,5.0,86,0.00,,,0.00,weatherlink.com 1.10,2013-04-28 14:35:00,
2013-04-28 09:50:00,61.7,57.0,30.00,SE,135,0.0,5.0,83,0.00,,,0.00,weatherlink.com 1.10,2013-04-28 14:50:00,
2013-04-28 10:05:00,63.4,58.0,30.00,SW,225,1.0,5.0,81,0.00,,,0.00,weatherlink.com 1.10,2013-04-28 15:05:00,
2013-04-28 10:20:00,64.7,58.0,29.99,WSW,251,3.0,8.0,78,0.00,,,0.00,weatherlink.com 1.10,2013-04-28 15:20:00,
2013-04-28 10:35:00,66.2,58.0,29.99,SW,216,3.0,7.0,75,0.00,,,0.00,weatherlink.com 1.10,2013-04-28 15:35:00,
2013-04-28 10:51:00,67.3,58.0,29.98,WSW,248,5.0,9.0,72,0.00,,,0.00,weatherlink.com 1.10,2013-04-28 15:51:00,
2013-04-28 11:06:00,67.9,58.0,29.98,SSW,206,2.0,8.0,70,0.00,,,0.00,weatherlink.com 1.10,2013-04-28 16:06:00,
2013-04-28 11:21:00,69.2,58.0,29.98,SW,225,0.0,7.0,68,0.00,,,0.00,weatherlink.com 1.10,2013-04-28 16:21:00,
2013-04-28 11:36:00,69.9,58.0,29.98,South,183,2.0,8.0,67,0.00,,,0.00,weatherlink.com 1.10,2013-04-28 16:36:00,
2013-04-28 11:51:00,70.7,56.0,29.97,SW,227,0.0,7.0,61,0.00,,,0.00,weatherlink.com 1.10,2013-04-28 16:51:00,
2013-04-28 12:06:00,71.8,57.0,29.96,SSW,202,5.0,11.0,59,0.00,,,0.00,weatherlink.com 1.10,2013-04-28 17:06:00,
2013-04-28 12:21:00,72.8,55.0,29.96,SSW,213,7.0,9.0,54,0.00,,,0.00,weatherlink.com 1.10,2013-04-28 17:21:00,
2013-04-28 12:36:00,73.6,54.0,29.95,WSW,241,6.0,9.0,50,0.00,,,0.00,weatherlink.com 1.10,2013-04-28 17:36:00,
2013-04-28 12:51:00,74.5,53.0,29.94,SW,214,5.0,7.0,48,0.00,,,0.00,weatherlink.com 1.10,2013-04-28 17:51:00,
2013-04-28 13:06:00,75.4,54.0,29.94,South,188,7.0,8.0,48,0.00,,,0.00,weatherlink.com 1.10,2013-04-28 18:06:00,
2013-04-28 13:21:00,75.6,52.0,29.93,WSW,254,0.0,6.0,44,0.00,,,0.00,weatherlink.com 1.10,2013-04-28 18:21:00,
2013-04-28 13:36:00,76.6,52.0,29.92,SW,222,4.0,9.0,43,0.00,,,0.00,weatherlink.com 1.10,2013-04-28 18:36:00,
2013-04-28 13:51:00,76.6,53.0,29.92,SW,225,4.0,11.0,44,0.00,,,0.00,weatherlink.com 1.10,2013-04-28 18:51:00,
2013-04-28 14:06:00,77.5,52.0,29.91,WSW,246,0.0,8.0,41,0.00,,,0.00,weatherlink.com 1.10,2013-04-28 19:06:00,
2013-04-28 14:21:00,78.5,52.0,29.90,SW,232,2.0,9.0,40,0.00,,,0.00,weatherlink.com 1.10,2013-04-28 19:21:00,
2013-04-28 14:36:00,78.6,52.0,29.89,WSW,237,0.0,9.0,40,0.00,,,0.00,weatherlink.com 1.10,2013-04-28 19:36:00,
2013-04-28 14:51:00,79.5,53.0,29.89,SSE,161,5.0,9.0,40,0.00,,,0.00,weatherlink.com 1.10,2013-04-28 19:51:00,
2013-04-28 15:06:00,79.6,52.0,29.88,WSW,252,9.0,14.0,38,0.00,,,0.00,weatherlink.com 1.10,2013-04-28 20:06:00,
2013-04-28 15:21:00,80.3,53.0,29.87,South,185,7.0,9.0,39,0.00,,,0.00,weatherlink.com 1.10,2013-04-28 20:21:00,
2013-04-28 15:36:00,80.8,53.0,29.86,SW,236,3.0,12.0,38,0.00,,,0.00,weatherlink.com 1.10,2013-04-28 20:36:00,
2013-04-28 15:52:00,81.0,53.0,29.85,SE,145,7.0,11.0,38,0.00,,,0.00,weatherlink.com 1.10,2013-04-28 20:52:00,
2013-04-28 16:07:00,81.9,54.0,29.84,WSW,248,3.0,10.0,38,0.00,,,0.00,weatherlink.com 1.10,2013-04-28 21:07:00,
2013-04-28 16:22:00,81.6,54.0,29.83,South,182,2.0,13.0,39,0.00,,,0.00,weatherlink.com 1.10,2013-04-28 21:22:00,
2013-04-28 16:37:00,82.5,55.0,29.82,South,173,7.0,9.0,39,0.00,,,0.00,weatherlink.com 1.10,2013-04-28 21:37:00,
2013-04-28 16:52:00,82.5,55.0,29.82,SSW,192,4.0,10.0,39,0.00,,,0.00,weatherlink.com 1.10,2013-04-28 21:52:00,
2013-04-28 17:07:00,82.4,54.0,29.82,SSE,155,0.0,11.0,38,0.00,,,0.00,weatherlink.com 1.10,2013-04-28 22:07:00,
2013-04-28 17:22:00,82.6,56.0,29.81,South,191,2.0,11.0,40,0.00,,,0.00,weatherlink.com 1.10,2013-04-28 22:22:00,
2013-04-28 17:37:00,82.7,57.0,29.81,SSW,196,3.0,11.0,41,0.00,,,0.00,weatherlink.com 1.10,2013-04-28 22:37:00,
2013-04-28 17:52:00,81.8,58.0,29.80,SSE,157,6.0,16.0,44,0.00,,,0.00,weatherlink.com 1.10,2013-04-28 22:52:00,
2013-04-28 18:07:00,81.9,59.0,29.80,SE,146,6.0,13.0,46,0.00,,,0.00,weatherlink.com 1.10,2013-04-28 23:07:00,
2013-04-28 18:22:00,81.7,59.0,29.80,SSE,154,5.0,11.0,46,0.00,,,0.00,weatherlink.com 1.10,2013-04-28 23:22:00,
2013-04-28 18:37:00,81.0,59.0,29.79,SSE,159,7.0,10.0,48,0.00,,,0.00,weatherlink.com 1.10,2013-04-28 23:37:00,
2013-04-28 18:52:00,80.1,59.0,29.79,SSE,159,15.0,16.0,49,0.00,,,0.00,weatherlink.com 1.10,2013-04-28 23:52:00,
2013-04-28 19:07:00,79.6,60.0,29.80,SE,142,4.0,13.0,51,0.00,,,0.00,weatherlink.com 1.10,2013-04-29 00:07:00,
2013-04-28 19:22:00,79.0,60.0,29.80,SSE,149,9.0,11.0,53,0.00,,,0.00,weatherlink.com 1.10,2013-04-29 00:22:00,
2013-04-28 19:37:00,77.9,60.0,29.80,SE,133,10.0,14.0,55,0.00,,,0.00,weatherlink.com 1.10,2013-04-29 00:37:00,
2013-04-28 19:52:00,76.9,61.0,29.80,SE,128,3.0,12.0,58,0.00,,,0.00,weatherlink.com 1.10,2013-04-29 00:52:00,
2013-04-28 20:07:00,75.8,61.0,29.80,SE,144,6.0,12.0,60,0.00,,,0.00,weatherlink.com 1.10,2013-04-29 01:07:00,
2013-04-28 20:22:00,74.9,61.0,29.80,SE,146,8.0,12.0,62,0.00,,,0.00,weatherlink.com 1.10,2013-04-29 01:22:00,
2013-04-28 20:37:00,74.2,61.0,29.81,SE,130,7.0,9.0,64,0.00,,,0.00,weatherlink.com 1.10,2013-04-29 01:37:00,
2013-04-28 20:52:00,73.6,62.0,29.81,SSE,160,0.0,9.0,66,0.00,,,0.00,weatherlink.com 1.10,2013-04-29 01:52:00,
2013-04-28 21:07:00,72.9,61.0,29.82,SE,138,4.0,7.0,67,0.00,,,0.00,weatherlink.com 1.10,2013-04-29 02:07:00,
2013-04-28 21:22:00,72.1,61.0,29.82,SE,125,1.0,4.0,69,0.00,,,0.00,weatherlink.com 1.10,2013-04-29 02:22:00,
2013-04-28 21:37:00,71.5,61.0,29.82,SE,130,0.0,6.0,70,0.00,,,0.00,weatherlink.com 1.10,2013-04-29 02:37:00,
2013-04-28 21:52:00,70.5,61.0,29.83,SE,126,0.0,0.0,72,0.00,,,0.00,weatherlink.com 1.10,2013-04-29 02:52:00,
2013-04-28 22:07:00,70.0,61.0,29.83,SE,130,0.0,0.0,73,0.00,,,0.00,weatherlink.com 1.10,2013-04-29 03:07:00,
2013-04-28 22:22:00,69.3,61.0,29.83,SE,126,0.0,0.0,74,0.00,,,0.00,weatherlink.com 1.10,2013-04-29 03:22:00,
2013-04-28 22:37:00,68.6,61.0,29.84,SE,132,0.0,0.0,76,0.00,,,0.00,weatherlink.com 1.10,2013-04-29 03:37:00,
2013-04-28 22:52:00,68.4,61.0,29.83,SE,136,0.0,4.0,77,0.00,,,0.00,weatherlink.com 1.10,2013-04-29 03:52:00,
2013-04-28 23:07:00,68.5,61.0,29.83,SE,143,0.0,8.0,78,0.00,,,0.00,weatherlink.com 1.10,2013-04-29 04:07:00,
2013-04-28 23:22:00,68.4,62.0,29.83,SE,127,0.0,7.0,79,0.00,,,0.00,weatherlink.com 1.10,2013-04-29 04:22:00,
2013-04-28 23:37:00,67.6,62.0,29.82,SE,126,0.0,0.0,81,0.00,,,0.00,weatherlink.com 1.10,2013-04-29 04:37:00,
2013-04-28 23:52:00,67.1,62.0,29.82,SE,128,0.0,0.0,83,0.00,,,0.00,weatherlink.com 1.10,2013-04-29 04:52:00,